sensor_id;sensor_type;location;lat;lon;timestamp;pressure;altitude;pressure_sealevel;temperature;humidity
2178;BME280;1095;50.992;6.798;2023-01-29T00:01:21;102329.16;;;-4.27;100.00
2178;BME280;1095;50.992;6.798;2023-01-29T00:03:49;102334.31;;;-4.32;100.00
2178;BME280;1095;50.992;6.798;2023-01-29T00:06:16;102327.44;;;-4.27;100.00
2178;BME280;1095;50.992;6.798;2023-01-29T00:08:43;102326.66;;;-4.33;100.00
2178;BME280;1095;50.992;6.798;2023-01-29T00:11:09;102319.91;;;-4.38;100.00
2178;BME280;1095;50.992;6.798;2023-01-29T00:13:38;102327.56;;;-4.36;100.00
2178;BME280;1095;50.992;6.798;2023-01-29T00:16:04;102316.50;;;-4.38;100.00
2178;BME280;1095;50.992;6.798;2023-01-29T00:18:31;102320.66;;;-4.29;100.00
2178;BME280;1095;50.992;6.798;2023-01-29T00:20:58;102314.72;;;-4.31;100.00
2178;BME280;1095;50.992;6.798;2023-01-29T00:23:25;102313.81;;;-4.27;100.00
2178;BME280;1095;50.992;6.798;2023-01-29T00:25:51;102313.00;;;-4.29;100.00
2178;BME280;1095;50.992;6.798;2023-01-29T00:28:18;102323.25;;;-4.32;100.00
2178;BME280;1095;50.992;6.798;2023-01-29T00:30:46;102321.34;;;-4.18;100.00
2178;BME280;1095;50.992;6.798;2023-01-29T00:33:12;102309.53;;;-4.25;100.00
2178;BME280;1095;50.992;6.798;2023-01-29T00:35:39;102307.84;;;-4.26;100.00
2178;BME280;1095;50.992;6.798;2023-01-29T00:38:06;102315.38;;;-4.19;100.00
2178;BME280;1095;50.992;6.798;2023-01-29T00:40:36;102299.22;;;-4.22;100.00
2178;BME280;1095;50.992;6.798;2023-01-29T00:43:16;102303.56;;;-4.26;100.00
2178;BME280;1095;50.992;6.798;2023-01-29T00:46:02;102295.00;;;-4.25;100.00
2178;BME280;1095;50.992;6.798;2023-01-29T00:48:30;102295.00;;;-4.25;100.00
2178;BME280;1095;50.992;6.798;2023-01-29T00:50:57;102295.94;;;-4.27;100.00
2178;BME280;1095;50.992;6.798;2023-01-29T00:53:23;102292.53;;;-4.29;100.00
2178;BME280;1095;50.992;6.798;2023-01-29T00:55:50;102300.31;;;-4.37;100.00
2178;BME280;1095;50.992;6.798;2023-01-29T00:58:17;102293.59;;;-4.44;100.00
2178;BME280;1095;50.992;6.798;2023-01-29T01:00:46;102293.50;;;-4.38;100.00
2178;BME280;1095;50.992;6.798;2023-01-29T01:03:15;102291.84;;;-4.41;100.00
2178;BME280;1095;50.992;6.798;2023-01-29T01:05:40;102289.34;;;-4.47;100.00
2178;BME280;1095;50.992;6.798;2023-01-29T01:08:08;102286.88;;;-4.53;100.00
2178;BME280;1095;50.992;6.798;2023-01-29T01:10:58;102285.25;;;-4.60;100.00
2178;BME280;1095;50.992;6.798;2023-01-29T01:13:25;102295.34;;;-4.49;100.00
2178;BME280;1095;50.992;6.798;2023-01-29T01:15:52;102287.72;;;-4.52;100.00
2178;BME280;1095;50.992;6.798;2023-01-29T01:18:20;102289.47;;;-4.56;100.00
2178;BME280;1095;50.992;6.798;2023-01-29T01:20:47;102290.44;;;-4.64;100.00
2178;BME280;1095;50.992;6.798;2023-01-29T01:23:16;102294.69;;;-4.65;100.00
2178;BME280;1095;50.992;6.798;2023-01-29T01:25:43;102295.56;;;-4.68;100.00
2178;BME280;1095;50.992;6.798;2023-01-29T01:28:10;102299.84;;;-4.68;100.00
2178;BME280;1095;50.992;6.798;2023-01-29T01:30:36;102302.47;;;-4.73;100.00
2178;BME280;1095;50.992;6.798;2023-01-29T01:33:03;102282.16;;;-4.83;100.00
2178;BME280;1095;50.992;6.798;2023-01-29T01:35:31;102301.66;;;-4.76;100.00
2178;BME280;1095;50.992;6.798;2023-01-29T01:37:58;102311.09;;;-4.83;100.00
2178;BME280;1095;50.992;6.798;2023-01-29T01:40:25;102314.50;;;-4.82;100.00
2178;BME280;1095;50.992;6.798;2023-01-29T01:42:53;102303.47;;;-4.87;100.00
2178;BME280;1095;50.992;6.798;2023-01-29T01:45:24;102296.69;;;-4.88;100.00
2178;BME280;1095;50.992;6.798;2023-01-29T01:47:55;102299.16;;;-4.81;100.00
2178;BME280;1095;50.992;6.798;2023-01-29T01:50:28;102300.88;;;-4.83;100.00
2178;BME280;1095;50.992;6.798;2023-01-29T01:53:01;102296.63;;;-4.82;100.00
2178;BME280;1095;50.992;6.798;2023-01-29T01:55:31;102285.56;;;-4.84;100.00
2178;BME280;1095;50.992;6.798;2023-01-29T01:58:02;102282.84;;;-4.72;100.00
2178;BME280;1095;50.992;6.798;2023-01-29T02:00:30;102279.44;;;-4.71;100.00
2178;BME280;1095;50.992;6.798;2023-01-29T02:02:57;102275.25;;;-4.75;100.00
2178;BME280;1095;50.992;6.798;2023-01-29T02:05:42;102281.19;;;-4.73;100.00
2178;BME280;1095;50.992;6.798;2023-01-29T02:08:31;102286.34;;;-4.76;100.00
2178;BME280;1095;50.992;6.798;2023-01-29T02:11:18;102288.97;;;-4.84;100.00
2178;BME280;1095;50.992;6.798;2023-01-29T02:13:45;102294.16;;;-4.91;100.00
2178;BME280;1095;50.992;6.798;2023-01-29T02:16:18;102282.28;;;-4.94;100.00
2178;BME280;1095;50.992;6.798;2023-01-29T02:18:44;102289.09;;;-4.94;100.00
2178;BME280;1095;50.992;6.798;2023-01-29T02:21:22;102295.91;;;-4.95;100.00
2178;BME280;1095;50.992;6.798;2023-01-29T02:24:17;102286.53;;;-4.94;100.00
2178;BME280;1095;50.992;6.798;2023-01-29T02:26:54;102283.91;;;-4.88;100.00
2178;BME280;1095;50.992;6.798;2023-01-29T02:29:32;102290.75;;;-4.90;100.00
2178;BME280;1095;50.992;6.798;2023-01-29T02:32:11;102294.13;;;-4.87;100.00
2178;BME280;1095;50.992;6.798;2023-01-29T02:34:48;102294.13;;;-4.88;100.00
2178;BME280;1095;50.992;6.798;2023-01-29T02:37:38;102288.16;;;-4.87;100.00
2178;BME280;1095;50.992;6.798;2023-01-29T02:40:12;102298.44;;;-4.92;100.00
2178;BME280;1095;50.992;6.798;2023-01-29T02:42:47;102296.66;;;-4.85;100.00
2178;BME280;1095;50.992;6.798;2023-01-29T02:45:24;102295.84;;;-4.90;100.00
2178;BME280;1095;50.992;6.798;2023-01-29T02:47:57;102305.19;;;-4.86;100.00
2178;BME280;1095;50.992;6.798;2023-01-29T02:50:30;102309.50;;;-4.94;100.00
2178;BME280;1095;50.992;6.798;2023-01-29T02:53:01;102313.75;;;-4.93;100.00
2178;BME280;1095;50.992;6.798;2023-01-29T02:55:33;102323.19;;;-5.00;100.00
2178;BME280;1095;50.992;6.798;2023-01-29T02:58:06;102325.75;;;-5.02;100.00
2178;BME280;1095;50.992;6.798;2023-01-29T03:00:40;102331.75;;;-5.06;100.00
2178;BME280;1095;50.992;6.798;2023-01-29T03:03:12;102340.31;;;-5.11;100.00
2178;BME280;1095;50.992;6.798;2023-01-29T03:05:45;102342.03;;;-5.15;100.00
2178;BME280;1095;50.992;6.798;2023-01-29T03:08:21;102342.03;;;-5.15;100.00
2178;BME280;1095;50.992;6.798;2023-01-29T03:11:03;102349.66;;;-5.12;100.00
2178;BME280;1095;50.992;6.798;2023-01-29T03:13:35;102347.94;;;-5.07;100.00
2178;BME280;1095;50.992;6.798;2023-01-29T03:16:11;102332.66;;;-5.13;100.00
2178;BME280;1095;50.992;6.798;2023-01-29T03:18:42;102321.63;;;-5.16;100.00
2178;BME280;1095;50.992;6.798;2023-01-29T03:21:15;102319.94;;;-5.17;100.00
2178;BME280;1095;50.992;6.798;2023-01-29T03:24:02;102318.31;;;-5.21;100.00
2178;BME280;1095;50.992;6.798;2023-01-29T03:26:46;102303.84;;;-5.21;100.00
2178;BME280;1095;50.992;6.798;2023-01-29T03:29:31;102308.91;;;-5.19;100.00
2178;BME280;1095;50.992;6.798;2023-01-29T03:32:20;102296.22;;;-5.24;100.00
2178;BME280;1095;50.992;6.798;2023-01-29T03:34:51;102305.56;;;-5.21;100.00
2178;BME280;1095;50.992;6.798;2023-01-29T03:37:25;102296.09;;;-5.13;100.00
2178;BME280;1095;50.992;6.798;2023-01-29T03:39:53;102306.25;;;-5.07;100.00
2178;BME280;1095;50.992;6.798;2023-01-29T03:42:23;102311.34;;;-5.07;100.00
2178;BME280;1095;50.992;6.798;2023-01-29T03:44:58;102317.28;;;-5.07;100.00
2178;BME280;1095;50.992;6.798;2023-01-29T03:47:41;102313.03;;;-5.06;100.00
2178;BME280;1095;50.992;6.798;2023-01-29T03:50:14;102315.53;;;-5.02;100.00
2178;BME280;1095;50.992;6.798;2023-01-29T03:52:50;102310.41;;;-4.98;100.00
2178;BME280;1095;50.992;6.798;2023-01-29T03:55:28;102320.59;;;-4.95;100.00
2178;BME280;1095;50.992;6.798;2023-01-29T03:58:04;102332.56;;;-5.01;100.00
2178;BME280;1095;50.992;6.798;2023-01-29T04:00:36;102328.34;;;-5.05;100.00
2178;BME280;1095;50.992;6.798;2023-01-29T04:03:10;102322.41;;;-5.07;100.00
2178;BME280;1095;50.992;6.798;2023-01-29T04:05:44;102311.31;;;-5.06;100.00
2178;BME280;1095;50.992;6.798;2023-01-29T04:08:13;102310.41;;;-5.00;100.00
2178;BME280;1095;50.992;6.798;2023-01-29T04:10:43;102311.28;;;-4.99;100.00
2178;BME280;1095;50.992;6.798;2023-01-29T04:13:12;102298.50;;;-4.99;100.00
2178;BME280;1095;50.992;6.798;2023-01-29T04:15:44;102303.63;;;-5.01;100.00
2178;BME280;1095;50.992;6.798;2023-01-29T04:18:13;102305.41;;;-5.08;100.00
2178;BME280;1095;50.992;6.798;2023-01-29T04:20:40;102307.94;;;-5.06;100.00
2178;BME280;1095;50.992;6.798;2023-01-29T04:23:19;102293.41;;;-4.99;100.00
2178;BME280;1095;50.992;6.798;2023-01-29T04:25:52;102286.59;;;-5.01;100.00
2178;BME280;1095;50.992;6.798;2023-01-29T04:28:25;102290.03;;;-5.02;100.00
2178;BME280;1095;50.992;6.798;2023-01-29T04:30:58;102284.06;;;-5.02;100.00
2178;BME280;1095;50.992;6.798;2023-01-29T04:33:33;102277.22;;;-4.97;100.00
2178;BME280;1095;50.992;6.798;2023-01-29T04:36:17;102275.47;;;-4.93;100.00
2178;BME280;1095;50.992;6.798;2023-01-29T04:38:57;102268.59;;;-4.87;100.00
2178;BME280;1095;50.992;6.798;2023-01-29T04:41:32;102266.91;;;-4.88;100.00
2178;BME280;1095;50.992;6.798;2023-01-29T04:44:06;102277.06;;;-4.85;100.00
2178;BME280;1095;50.992;6.798;2023-01-29T04:46:43;102263.34;;;-4.75;100.00
2178;BME280;1095;50.992;6.798;2023-01-29T04:49:19;102265.75;;;-4.67;100.00
2178;BME280;1095;50.992;6.798;2023-01-29T04:52:59;102265.78;;;-4.69;100.00
2178;BME280;1095;50.992;6.798;2023-01-29T04:55:14;102236.88;;;-4.72;100.00
2178;BME280;1095;50.992;6.798;2023-01-29T04:57:48;102234.31;;;-4.71;100.00
2178;BME280;1095;50.992;6.798;2023-01-29T05:00:18;102223.31;;;-4.74;100.00
2178;BME280;1095;50.992;6.798;2023-01-29T05:02:46;102240.94;;;-4.57;100.00
2178;BME280;1095;50.992;6.798;2023-01-29T05:05:17;102246.97;;;-4.61;100.00
2178;BME280;1095;50.992;6.798;2023-01-29T05:07:45;102235.88;;;-4.60;100.00
2178;BME280;1095;50.992;6.798;2023-01-29T05:10:14;102228.28;;;-4.65;100.00
2178;BME280;1095;50.992;6.798;2023-01-29T05:12:45;102238.56;;;-4.71;100.00
2178;BME280;1095;50.992;6.798;2023-01-29T05:15:15;102238.66;;;-4.76;100.00
2178;BME280;1095;50.992;6.798;2023-01-29T05:17:44;102235.34;;;-4.82;100.00
2178;BME280;1095;50.992;6.798;2023-01-29T05:20:12;102242.28;;;-4.93;100.00
2178;BME280;1095;50.992;6.798;2023-01-29T05:22:41;102244.00;;;-4.95;100.00
2178;BME280;1095;50.992;6.798;2023-01-29T05:25:19;102250.84;;;-4.97;100.00
2178;BME280;1095;50.992;6.798;2023-01-29T05:27:48;102244.81;;;-4.93;100.00
2178;BME280;1095;50.992;6.798;2023-01-29T05:30:30;102240.44;;;-4.81;100.00
2178;BME280;1095;50.992;6.798;2023-01-29T05:32:56;102239.41;;;-4.71;100.00
2178;BME280;1095;50.992;6.798;2023-01-29T05:35:23;102232.69;;;-4.75;100.00
2178;BME280;1095;50.992;6.798;2023-01-29T05:37:51;102231.78;;;-4.72;100.00
2178;BME280;1095;50.992;6.798;2023-01-29T05:40:18;102236.78;;;-4.63;100.00
2178;BME280;1095;50.992;6.798;2023-01-29T05:42:44;102240.22;;;-4.67;100.00
2178;BME280;1095;50.992;6.798;2023-01-29T05:45:11;102233.47;;;-4.71;100.00
2178;BME280;1095;50.992;6.798;2023-01-29T05:47:39;102243.59;;;-4.65;100.00
2178;BME280;1095;50.992;6.798;2023-01-29T05:50:07;102237.69;;;-4.69;100.00
2178;BME280;1095;50.992;6.798;2023-01-29T05:52:34;102238.63;;;-4.74;100.00
2178;BME280;1095;50.992;6.798;2023-01-29T05:55:02;102231.78;;;-4.72;100.00
2178;BME280;1095;50.992;6.798;2023-01-29T05:57:29;102236.03;;;-4.71;100.00
2178;BME280;1095;50.992;6.798;2023-01-29T05:59:55;102217.38;;;-4.76;100.00
2178;BME280;1095;50.992;6.798;2023-01-29T06:02:22;102232.72;;;-4.76;100.00
2178;BME280;1095;50.992;6.798;2023-01-29T06:04:49;102235.25;;;-4.76;100.00
2178;BME280;1095;50.992;6.798;2023-01-29T06:07:18;102229.38;;;-4.81;100.00
2178;BME280;1095;50.992;6.798;2023-01-29T06:12:20;102234.44;;;-4.78;100.00
2178;BME280;1095;50.992;6.798;2023-01-29T06:14:47;102206.50;;;-4.90;100.00
2178;BME280;1095;50.992;6.798;2023-01-29T06:17:14;102231.06;;;-4.80;100.00
2178;BME280;1095;50.992;6.798;2023-01-29T06:19:55;102237.09;;;-4.87;100.00
2178;BME280;1095;50.992;6.798;2023-01-29T06:22:34;102246.44;;;-4.86;100.00
2178;BME280;1095;50.992;6.798;2023-01-29T06:25:02;102231.19;;;-4.91;100.00
2178;BME280;1095;50.992;6.798;2023-01-29T06:27:30;102238.81;;;-4.88;100.00
2178;BME280;1095;50.992;6.798;2023-01-29T06:29:56;102249.03;;;-4.89;100.00
2178;BME280;1095;50.992;6.798;2023-01-29T06:32:23;102253.31;;;-4.90;100.00
2178;BME280;1095;50.992;6.798;2023-01-29T06:34:50;102259.34;;;-4.97;100.00
2178;BME280;1095;50.992;6.798;2023-01-29T06:37:17;102260.25;;;-5.04;100.00
2178;BME280;1095;50.992;6.798;2023-01-29T06:39:44;102272.19;;;-5.06;100.00
2178;BME280;1095;50.992;6.798;2023-01-29T06:42:10;102279.06;;;-5.11;100.00
2178;BME280;1095;50.992;6.798;2023-01-29T06:44:38;102293.63;;;-5.21;100.00
2178;BME280;1095;50.992;6.798;2023-01-29T06:47:05;102294.50;;;-5.20;100.00
2178;BME280;1095;50.992;6.798;2023-01-29T06:49:33;102297.97;;;-5.30;100.00
2178;BME280;1095;50.992;6.798;2023-01-29T06:52:00;102303.94;;;-5.30;100.00
2178;BME280;1095;50.992;6.798;2023-01-29T06:54:26;102307.31;;;-5.28;100.00
2178;BME280;1095;50.992;6.798;2023-01-29T06:56:53;102302.09;;;-5.19;100.00
2178;BME280;1095;50.992;6.798;2023-01-29T06:59:20;102303.72;;;-5.12;100.00
2178;BME280;1095;50.992;6.798;2023-01-29T07:01:48;102308.78;;;-5.07;100.00
2178;BME280;1095;50.992;6.798;2023-01-29T07:04:15;102296.03;;;-5.07;100.00
2178;BME280;1095;50.992;6.798;2023-01-29T07:06:41;102286.63;;;-5.04;100.00
2178;BME280;1095;50.992;6.798;2023-01-29T07:09:10;102287.47;;;-5.02;100.00
2178;BME280;1095;50.992;6.798;2023-01-29T07:11:38;102294.13;;;-4.88;100.00
2178;BME280;1095;50.992;6.798;2023-01-29T07:14:05;102296.53;;;-4.73;100.00
2178;BME280;1095;50.992;6.798;2023-01-29T07:16:32;102277.63;;;-4.63;100.00
2178;BME280;1095;50.992;6.798;2023-01-29T07:19:00;102271.66;;;-4.62;100.00
2178;BME280;1095;50.992;6.798;2023-01-29T07:21:27;102275.88;;;-4.58;100.00
2178;BME280;1095;50.992;6.798;2023-01-29T07:23:53;102276.63;;;-4.50;100.00
2178;BME280;1095;50.992;6.798;2023-01-29T07:26:20;102283.38;;;-4.46;100.00
2178;BME280;1095;50.992;6.798;2023-01-29T07:28:47;102275.66;;;-4.41;100.00
2178;BME280;1095;50.992;6.798;2023-01-29T07:31:13;102268.75;;;-4.35;100.00
2178;BME280;1095;50.992;6.798;2023-01-29T07:33:42;102266.03;;;-4.24;100.00
2178;BME280;1095;50.992;6.798;2023-01-29T07:36:10;102282.00;;;-4.08;100.00
2178;BME280;1095;50.992;6.798;2023-01-29T07:38:37;102276.72;;;-3.96;100.00
2178;BME280;1095;50.992;6.798;2023-01-29T07:41:04;102267.22;;;-3.89;100.00
2178;BME280;1095;50.992;6.798;2023-01-29T07:43:31;102279.81;;;-3.77;100.00
2178;BME280;1095;50.992;6.798;2023-01-29T07:46:00;102277.09;;;-3.68;100.00
2178;BME280;1095;50.992;6.798;2023-01-29T07:48:27;102278.72;;;-3.62;100.00
2178;BME280;1095;50.992;6.798;2023-01-29T07:50:54;102281.22;;;-3.59;100.00
2178;BME280;1095;50.992;6.798;2023-01-29T07:53:22;102271.78;;;-3.56;100.00
2178;BME280;1095;50.992;6.798;2023-01-29T07:55:49;102265.75;;;-3.52;100.00
2178;BME280;1095;50.992;6.798;2023-01-29T07:58:16;102272.47;;;-3.46;100.00
2178;BME280;1095;50.992;6.798;2023-01-29T08:00:42;102267.31;;;-3.43;100.00
2178;BME280;1095;50.992;6.798;2023-01-29T08:03:11;102247.53;;;-3.35;100.00
2178;BME280;1095;50.992;6.798;2023-01-29T08:05:40;102250.81;;;-3.28;100.00
2178;BME280;1095;50.992;6.798;2023-01-29T08:08:07;102263.50;;;-3.22;100.00
2178;BME280;1095;50.992;6.798;2023-01-29T08:10:35;102265.00;;;-3.11;100.00
2178;BME280;1095;50.992;6.798;2023-01-29T08:13:03;102274.41;;;-3.13;100.00
2178;BME280;1095;50.992;6.798;2023-01-29T08:15:30;102259.91;;;-3.14;100.00
2178;BME280;1095;50.992;6.798;2023-01-29T08:17:57;102250.47;;;-3.10;100.00
2178;BME280;1095;50.992;6.798;2023-01-29T08:20:24;102247.78;;;-3.04;100.00
2178;BME280;1095;50.992;6.798;2023-01-29T08:22:58;102257.94;;;-2.99;100.00
2178;BME280;1095;50.992;6.798;2023-01-29T08:25:25;102262.28;;;-3.03;100.00
2178;BME280;1095;50.992;6.798;2023-01-29T08:27:54;102259.06;;;-3.13;100.00
2178;BME280;1095;50.992;6.798;2023-01-29T08:30:21;102263.84;;;-2.96;100.00
2178;BME280;1095;50.992;6.798;2023-01-29T08:32:47;102261.31;;;-2.97;100.00
2178;BME280;1095;50.992;6.798;2023-01-29T08:35:14;102270.63;;;-2.93;100.00
2178;BME280;1095;50.992;6.798;2023-01-29T08:37:41;102263.25;;;-3.09;100.00
2178;BME280;1095;50.992;6.798;2023-01-29T08:40:08;102259.81;;;-3.08;100.00
2178;BME280;1095;50.992;6.798;2023-01-29T08:42:37;102271.50;;;-2.94;100.00
2178;BME280;1095;50.992;6.798;2023-01-29T08:45:08;102263.00;;;-2.96;100.00
2178;BME280;1095;50.992;6.798;2023-01-29T08:47:35;102259.41;;;-2.86;100.00
2178;BME280;1095;50.992;6.798;2023-01-29T08:50:01;102249.06;;;-2.83;100.00
2178;BME280;1095;50.992;6.798;2023-01-29T08:52:28;102248.94;;;-2.77;100.00
2178;BME280;1095;50.992;6.798;2023-01-29T08:54:54;102253.78;;;-2.63;100.00
2178;BME280;1095;50.992;6.798;2023-01-29T08:57:21;102244.63;;;-2.75;100.00
2178;BME280;1095;50.992;6.798;2023-01-29T08:59:47;102247.31;;;-2.81;100.00
2178;BME280;1095;50.992;6.798;2023-01-29T09:02:15;102255.25;;;-2.92;100.00
2178;BME280;1095;50.992;6.798;2023-01-29T09:04:42;102247.22;;;-2.77;100.00
2178;BME280;1095;50.992;6.798;2023-01-29T09:07:09;102248.66;;;-2.63;100.00
2178;BME280;1095;50.992;6.798;2023-01-29T09:09:35;102245.31;;;-2.67;100.00
2178;BME280;1095;50.992;6.798;2023-01-29T09:12:02;102252.59;;;-2.47;100.00
2178;BME280;1095;50.992;6.798;2023-01-29T09:14:29;102247.25;;;-2.37;100.00
2178;BME280;1095;50.992;6.798;2023-01-29T09:16:57;102258.81;;;-2.20;100.00
2178;BME280;1095;50.992;6.798;2023-01-29T09:19:25;102244.88;;;-2.09;100.00
2178;BME280;1095;50.992;6.798;2023-01-29T09:21:51;102248.72;;;-1.91;100.00
2178;BME280;1095;50.992;6.798;2023-01-29T09:24:18;102241.69;;;-1.84;100.00
2178;BME280;1095;50.992;6.798;2023-01-29T09:26:44;102232.81;;;-1.71;100.00
2178;BME280;1095;50.992;6.798;2023-01-29T09:29:11;102235.44;;;-1.73;100.00
2178;BME280;1095;50.992;6.798;2023-01-29T09:31:38;102227.66;;;-1.70;100.00
2178;BME280;1095;50.992;6.798;2023-01-29T09:34:04;102237.00;;;-1.67;100.00
2178;BME280;1095;50.992;6.798;2023-01-29T09:36:32;102233.63;;;-1.69;100.00
2178;BME280;1095;50.992;6.798;2023-01-29T09:38:59;102238.41;;;-1.55;100.00
2178;BME280;1095;50.992;6.798;2023-01-29T09:41:35;102239.16;;;-1.50;100.00
2178;BME280;1095;50.992;6.798;2023-01-29T09:44:11;102217.72;;;-1.49;100.00
2178;BME280;1095;50.992;6.798;2023-01-29T09:46:41;102217.66;;;-1.46;100.00
2178;BME280;1095;50.992;6.798;2023-01-29T09:49:13;102210.56;;;-1.38;100.00
2178;BME280;1095;50.992;6.798;2023-01-29T09:51:45;102219.03;;;-1.35;99.36
2178;BME280;1095;50.992;6.798;2023-01-29T09:54:18;102214.72;;;-1.34;99.56
2178;BME280;1095;50.992;6.798;2023-01-29T09:56:54;102209.34;;;-1.25;99.27
2178;BME280;1095;50.992;6.798;2023-01-29T09:59:24;102194.53;;;-1.15;99.15
2178;BME280;1095;50.992;6.798;2023-01-29T10:01:58;102195.47;;;-1.18;98.74
2178;BME280;1095;50.992;6.798;2023-01-29T10:04:43;102183.34;;;-1.13;98.54
2178;BME280;1095;50.992;6.798;2023-01-29T10:07:35;102183.91;;;-1.03;97.80
2178;BME280;1095;50.992;6.798;2023-01-29T10:10:24;102185.19;;;-1.18;97.97
2178;BME280;1095;50.992;6.798;2023-01-29T10:13:05;102183.16;;;-1.07;97.31
2178;BME280;1095;50.992;6.798;2023-01-29T10:15:52;102184.44;;;-0.92;97.89
2178;BME280;1095;50.992;6.798;2023-01-29T10:18:40;102171.13;;;-0.77;97.50
2178;BME280;1095;50.992;6.798;2023-01-29T10:21:23;102185.34;;;-0.65;96.73
2178;BME280;1095;50.992;6.798;2023-01-29T10:23:57;102184.59;;;-0.69;96.50
2178;BME280;1095;50.992;6.798;2023-01-29T10:26:31;102180.91;;;-0.60;96.23
2178;BME280;1095;50.992;6.798;2023-01-29T10:29:04;102181.88;;;-0.36;95.97
2178;BME280;1095;50.992;6.798;2023-01-29T10:31:32;102179.25;;;-0.35;95.71
2178;BME280;1095;50.992;6.798;2023-01-29T10:34:09;102165.59;;;-0.37;94.93
2178;BME280;1095;50.992;6.798;2023-01-29T10:36:41;102175.69;;;-0.30;94.42
2178;BME280;1095;50.992;6.798;2023-01-29T10:39:14;102181.81;;;-0.35;93.59
2178;BME280;1095;50.992;6.798;2023-01-29T10:41:51;102182.09;;;-0.16;93.49
2178;BME280;1095;50.992;6.798;2023-01-29T10:44:30;102172.91;;;-0.24;93.16
2178;BME280;1095;50.992;6.798;2023-01-29T10:50:36;102170.25;;;-0.21;93.59
2178;BME280;1095;50.992;6.798;2023-01-29T10:53:27;102167.97;;;-0.30;93.50
2178;BME280;1095;50.992;6.798;2023-01-29T10:56:07;102155.22;;;-0.34;92.96
2178;BME280;1095;50.992;6.798;2023-01-29T10:58:41;102159.66;;;-0.39;93.41
2178;BME280;1095;50.992;6.798;2023-01-29T11:01:10;102154.81;;;-0.21;92.95
2178;BME280;1095;50.992;6.798;2023-01-29T11:03:37;102152.97;;;-0.44;92.79
2178;BME280;1095;50.992;6.798;2023-01-29T11:06:10;102142.16;;;-0.54;92.77
2178;BME280;1095;50.992;6.798;2023-01-29T11:08:42;102146.34;;;-0.25;93.03
2178;BME280;1095;50.992;6.798;2023-01-29T11:11:13;102138.25;;;-0.13;92.67
2178;BME280;1095;50.992;6.798;2023-01-29T11:13:44;102125.72;;;0.02;92.29
2178;BME280;1095;50.992;6.798;2023-01-29T11:16:14;102127.84;;;0.15;91.88
2178;BME280;1095;50.992;6.798;2023-01-29T11:18:54;102114.91;;;0.17;91.92
2178;BME280;1095;50.992;6.798;2023-01-29T11:21:22;102105.34;;;0.20;91.53
2178;BME280;1095;50.992;6.798;2023-01-29T11:23:49;102092.84;;;0.35;91.01
2178;BME280;1095;50.992;6.798;2023-01-29T11:26:20;102095.69;;;0.27;91.15
2178;BME280;1095;50.992;6.798;2023-01-29T11:28:50;102098.31;;;0.25;90.85
2178;BME280;1095;50.992;6.798;2023-01-29T11:31:20;102091.06;;;0.37;90.49
2178;BME280;1095;50.992;6.798;2023-01-29T11:33:49;102078.84;;;0.42;90.09
2178;BME280;1095;50.992;6.798;2023-01-29T11:36:26;102082.72;;;0.30;90.56
2178;BME280;1095;50.992;6.798;2023-01-29T11:39:16;102087.91;;;0.28;90.68
2178;BME280;1095;50.992;6.798;2023-01-29T11:41:47;102077.19;;;0.41;90.25
2178;BME280;1095;50.992;6.798;2023-01-29T11:44:19;102089.06;;;0.45;90.10
2178;BME280;1095;50.992;6.798;2023-01-29T11:46:46;102080.66;;;0.40;90.41
2178;BME280;1095;50.992;6.798;2023-01-29T11:49:38;102072.41;;;0.53;89.95
2178;BME280;1095;50.992;6.798;2023-01-29T11:52:08;102073.47;;;0.48;89.98
2178;BME280;1095;50.992;6.798;2023-01-29T11:54:38;102069.22;;;0.23;90.10
2178;BME280;1095;50.992;6.798;2023-01-29T11:57:22;102060.50;;;0.27;90.06
2178;BME280;1095;50.992;6.798;2023-01-29T11:59:51;102058.38;;;0.39;90.67
2178;BME280;1095;50.992;6.798;2023-01-29T12:02:22;102044.13;;;0.52;90.65
2178;BME280;1095;50.992;6.798;2023-01-29T12:04:51;102050.63;;;0.62;90.84
2178;BME280;1095;50.992;6.798;2023-01-29T12:07:19;102041.59;;;0.74;90.27
2178;BME280;1095;50.992;6.798;2023-01-29T12:09:53;102044.44;;;0.66;90.36
2178;BME280;1095;50.992;6.798;2023-01-29T12:12:30;102031.63;;;0.64;90.50
2178;BME280;1095;50.992;6.798;2023-01-29T12:15:18;102036.50;;;0.72;89.95
2178;BME280;1095;50.992;6.798;2023-01-29T12:17:56;102025.66;;;0.86;90.07
2178;BME280;1095;50.992;6.798;2023-01-29T12:20:29;102036.31;;;0.98;89.59
2178;BME280;1095;50.992;6.798;2023-01-29T12:23:02;102022.28;;;1.06;89.67
2178;BME280;1095;50.992;6.798;2023-01-29T12:25:39;102003.22;;;1.10;89.48
2178;BME280;1095;50.992;6.798;2023-01-29T12:28:17;102001.69;;;1.26;89.09
2178;BME280;1095;50.992;6.798;2023-01-29T12:30:53;101992.41;;;1.22;88.73
2178;BME280;1095;50.992;6.798;2023-01-29T12:33:33;101982.09;;;1.22;88.81
2178;BME280;1095;50.992;6.798;2023-01-29T12:36:09;101968.44;;;0.98;89.25
2178;BME280;1095;50.992;6.798;2023-01-29T12:38:38;101961.59;;;1.19;89.07
2178;BME280;1095;50.992;6.798;2023-01-29T12:41:08;101956.06;;;1.28;89.17
2178;BME280;1095;50.992;6.798;2023-01-29T12:43:45;101946.97;;;1.40;88.99
2178;BME280;1095;50.992;6.798;2023-01-29T12:46:17;101933.19;;;1.41;89.05
2178;BME280;1095;50.992;6.798;2023-01-29T12:48:48;101934.56;;;1.48;88.95
2178;BME280;1095;50.992;6.798;2023-01-29T12:51:18;101923.66;;;1.61;88.59
2178;BME280;1095;50.992;6.798;2023-01-29T12:53:48;101930.09;;;1.72;88.30
2178;BME280;1095;50.992;6.798;2023-01-29T12:56:24;101918.94;;;1.32;88.62
2178;BME280;1095;50.992;6.798;2023-01-29T12:58:54;101914.03;;;1.26;89.46
2178;BME280;1095;50.992;6.798;2023-01-29T13:01:26;101913.88;;;1.49;89.49
2178;BME280;1095;50.992;6.798;2023-01-29T13:03:58;101904.63;;;1.64;88.89
2178;BME280;1095;50.992;6.798;2023-01-29T13:06:29;101910.84;;;1.79;88.87
2178;BME280;1095;50.992;6.798;2023-01-29T13:09:00;101903.53;;;1.88;88.60
2178;BME280;1095;50.992;6.798;2023-01-29T13:11:33;101898.16;;;1.93;88.06
2178;BME280;1095;50.992;6.798;2023-01-29T13:14:08;101887.53;;;1.99;87.35
2178;BME280;1095;50.992;6.798;2023-01-29T13:16:41;101886.78;;;1.97;87.18
2178;BME280;1095;50.992;6.798;2023-01-29T13:19:19;101878.75;;;2.03;87.56
2178;BME280;1095;50.992;6.798;2023-01-29T13:21:49;101879.88;;;1.97;87.38
2178;BME280;1095;50.992;6.798;2023-01-29T13:24:20;101871.28;;;1.97;87.49
2178;BME280;1095;50.992;6.798;2023-01-29T13:26:48;101868.63;;;1.98;87.52
2178;BME280;1095;50.992;6.798;2023-01-29T13:29:24;101860.81;;;2.00;87.19
2178;BME280;1095;50.992;6.798;2023-01-29T13:31:51;101856.41;;;2.02;87.37
2178;BME280;1095;50.992;6.798;2023-01-29T13:34:21;101848.81;;;1.99;87.50